createdAt,value
2018-01-12T00:01:35.874Z,94398.35
2018-01-12T00:04:03.689Z,94397.94
2018-01-12T00:44:26.876Z,94426.11
2018-01-12T00:57:01.260Z,94432.78
2018-01-12T00:59:29.007Z,94431.52
2018-01-12T01:01:56.637Z,94430.31
2018-01-12T01:04:24.445Z,94435.38
2018-01-12T01:06:52.032Z,94444.77
2018-01-12T01:29:32.829Z,94436.70
2018-01-12T01:37:03.723Z,94440.94
2018-01-12T01:39:31.457Z,94448.61
2018-01-12T01:41:58.982Z,94447.33
2018-01-12T01:44:26.550Z,94445.59
2018-01-12T01:46:54.172Z,94445.71
2018-01-12T01:51:53.751Z,94449.09
2018-01-12T01:54:21.678Z,94451.64
2018-01-12T01:59:20.831Z,94456.75
2018-01-12T02:01:48.627Z,94460.52
2018-01-12T02:04:16.196Z,94452.96
2018-01-12T02:14:18.800Z,94461.53
2018-01-12T02:16:46.374Z,94461.15
2018-01-12T02:19:14.106Z,94467.05
2018-01-12T02:39:23.365Z,94460.52
2018-01-12T02:41:50.936Z,94468.40
2018-01-12T02:44:18.462Z,94465.43
2018-01-12T02:46:46.199Z,94464.04
2018-01-12T02:49:13.770Z,94464.04
2018-01-12T02:51:41.493Z,94465.31
2018-01-12T02:54:09.065Z,94459.95
2018-01-12T02:59:08.733Z,94462.02
2018-01-12T03:01:36.300Z,94454.77
2018-01-12T03:04:04.063Z,94460.73
2018-01-12T03:06:31.644Z,94461.64
2018-01-12T03:08:59.209Z,94462.46
2018-01-12T03:11:26.782Z,94470.09
2018-01-12T03:13:55.542Z,94468.84
2018-01-12T03:19:17.161Z,94468.02
2018-01-12T03:21:44.761Z,94468.81
2018-01-12T03:26:47.673Z,94466.25
2018-01-12T03:29:19.963Z,94467.57
2018-01-12T03:32:16.338Z,94470.95
2018-01-12T03:34:54.181Z,94477.38
2018-01-12T03:37:30.305Z,94470.54
2018-01-12T03:40:11.925Z,94475.27
2018-01-12T03:42:47.314Z,94469.30
2018-01-12T03:55:55.645Z,94485.45
2018-01-12T03:58:23.358Z,94482.22
2018-01-12T04:00:51.002Z,94481.80
2018-01-12T04:03:18.572Z,94489.38
2018-01-12T04:05:46.191Z,94493.95
2018-01-12T04:08:13.728Z,94496.98
2018-01-12T04:10:41.303Z,94502.20
2018-01-12T04:13:08.786Z,94500.99
2018-01-12T04:15:36.436Z,94504.52
2018-01-12T04:18:04.154Z,94501.72
2018-01-12T04:20:31.740Z,94504.72
2018-01-12T04:22:59.320Z,94508.36
2018-01-12T04:25:26.832Z,94513.73
2018-01-12T04:27:54.390Z,94517.56
2018-01-12T04:30:21.944Z,94513.31
2018-01-12T04:32:49.494Z,94520.53
2018-01-12T04:35:17.056Z,94518.75
2018-01-12T04:37:44.608Z,94524.66
2018-01-12T04:40:12.160Z,94529.44
2018-01-12T04:42:39.733Z,94528.11
2018-01-12T04:45:07.292Z,94530.45
2018-01-12T04:47:34.786Z,94540.89
2018-01-12T04:50:02.275Z,94547.28
2018-01-12T04:52:29.769Z,94549.92
2018-01-12T04:54:57.343Z,94552.63
2018-01-12T04:57:24.913Z,94547.80
2018-01-12T04:59:52.509Z,94548.94
2018-01-12T05:02:20.115Z,94549.05
2018-01-12T05:04:47.690Z,94552.47
2018-01-12T05:07:15.251Z,94560.13
2018-01-12T05:09:42.805Z,94558.45
2018-01-12T05:12:10.397Z,94562.80
2018-01-12T05:14:37.947Z,94567.24
2018-01-12T05:17:05.525Z,94570.36
2018-01-12T05:19:33.092Z,94574.77
2018-01-12T05:22:00.680Z,94574.55
2018-01-12T05:24:28.231Z,94576.45
2018-01-12T05:26:55.792Z,94579.20
2018-01-12T05:29:23.414Z,94583.90
2018-01-12T05:31:51.032Z,94588.34
2018-01-12T05:34:18.628Z,94591.83
2018-01-12T05:36:46.200Z,94590.70
2018-01-12T05:39:13.766Z,94589.91
2018-01-12T05:41:41.900Z,94597.69
2018-01-12T05:44:10.747Z,94589.00
2018-01-12T05:46:38.859Z,94589.34
2018-01-12T05:49:06.951Z,94593.59
2018-01-12T05:51:34.829Z,94591.52
2018-01-12T05:54:02.509Z,94593.74
2018-01-12T05:59:01.790Z,94593.97
2018-01-12T06:01:41.167Z,94598.39
2018-01-12T06:04:20.569Z,94594.72
2018-01-12T06:06:48.120Z,94589.72
2018-01-12T06:09:15.713Z,94591.44
2018-01-12T06:11:43.259Z,94598.73
2018-01-12T06:14:10.741Z,94598.80
2018-01-12T06:16:38.312Z,94602.22
2018-01-12T06:19:05.797Z,94600.98
2018-01-12T06:21:33.293Z,94613.67
2018-01-12T06:24:00.879Z,94612.39
2018-01-12T06:26:28.444Z,94610.75
2018-01-12T06:28:56.007Z,94616.72
2018-01-12T06:31:23.525Z,94621.41
2018-01-12T06:33:51.081Z,94618.11
2018-01-12T06:36:18.631Z,94627.91
2018-01-12T06:38:46.189Z,94627.50
2018-01-12T06:41:13.751Z,94622.57
2018-01-12T06:43:41.343Z,94626.06
2018-01-12T06:46:08.904Z,94632.14
2018-01-12T06:48:36.464Z,94634.47
2018-01-12T06:51:03.959Z,94644.19
2018-01-12T06:53:31.524Z,94645.92
2018-01-12T06:55:59.053Z,94651.44
2018-01-12T06:58:26.603Z,94653.16
2018-01-12T07:00:54.163Z,94654.86
2018-01-12T07:03:21.716Z,94660.41
2018-01-12T07:05:49.260Z,94664.66
2018-01-12T07:08:16.810Z,94661.23
2018-01-12T07:10:44.382Z,94668.03
2018-01-12T07:13:11.940Z,94674.42
2018-01-12T07:15:39.428Z,94668.45
2018-01-12T07:18:06.986Z,94673.97
2018-01-12T07:20:46.504Z,94679.94
2018-01-12T07:23:25.904Z,94675.63
2018-01-12T07:25:53.464Z,94677.80
2018-01-12T07:28:20.950Z,94682.53
2018-01-12T07:30:48.500Z,94690.72
2018-01-12T07:33:16.124Z,94687.89
2018-01-12T07:35:43.608Z,94684.55
2018-01-12T07:38:11.155Z,94680.37
2018-01-12T07:40:38.753Z,94682.55
2018-01-12T07:43:06.324Z,94688.52
2018-01-12T07:45:33.884Z,94684.34
2018-01-12T07:48:01.438Z,94690.21
2018-01-12T07:50:29.034Z,94691.90
2018-01-12T07:53:02.244Z,94696.14
2018-01-12T07:55:29.827Z,94702.08
2018-01-12T07:57:57.379Z,94698.25
2018-01-12T08:00:30.721Z,94701.14
2018-01-12T08:03:03.994Z,94703.70
2018-01-12T08:05:31.521Z,94704.11
2018-01-12T08:07:59.070Z,94708.36
2018-01-12T08:10:26.629Z,94707.91
2018-01-12T08:12:54.113Z,94710.95
2018-01-12T08:15:21.675Z,94710.60
2018-01-12T08:17:49.240Z,94713.19
2018-01-12T08:20:16.729Z,94715.33
2018-01-12T08:22:44.324Z,94716.20
2018-01-12T08:25:11.907Z,94717.88
2018-01-12T08:27:39.466Z,94719.98
2018-01-12T08:30:06.954Z,94715.70
2018-01-12T08:32:34.511Z,94717.88
2018-01-12T08:35:02.011Z,94716.88
2018-01-12T08:37:29.573Z,94723.67
2018-01-12T08:39:57.131Z,94720.67
2018-01-12T08:42:24.682Z,94722.81
2018-01-12T08:44:52.235Z,94727.02
2018-01-12T08:47:19.783Z,94732.16
2018-01-12T08:49:47.332Z,94734.27
2018-01-12T08:52:14.901Z,94739.38
2018-01-12T08:54:42.396Z,94741.93
2018-01-12T08:57:09.958Z,94743.24
2018-01-12T08:59:37.520Z,94742.86
2018-01-12T09:02:05.103Z,94739.93
2018-01-12T09:04:32.642Z,94740.07
2018-01-12T09:07:00.129Z,94740.14
2018-01-12T09:09:27.683Z,94742.70
2018-01-12T09:11:55.235Z,94743.18
2018-01-12T09:14:34.425Z,94743.98
2018-01-12T09:17:01.991Z,94740.97
2018-01-12T09:19:40.160Z,94740.11
2018-01-12T09:22:10.497Z,94740.94
2018-01-12T09:27:16.481Z,94746.39
2018-01-12T09:29:44.072Z,94741.34
2018-01-12T09:32:15.371Z,94737.11
2018-01-12T09:35:05.325Z,94742.66
2018-01-12T09:37:39.784Z,94737.18
2018-01-12T09:40:22.061Z,94733.42
2018-01-12T09:42:49.549Z,94732.59
2018-01-12T09:45:17.094Z,94730.94
2018-01-12T09:47:56.314Z,94724.10
2018-01-12T09:50:23.886Z,94723.23
2018-01-12T09:52:51.442Z,94718.96
2018-01-12T09:55:19.005Z,94724.41
2018-01-12T09:57:46.555Z,94716.75
2018-01-12T10:00:25.794Z,94720.92
2018-01-12T10:02:53.350Z,94720.95
2018-01-12T10:05:20.835Z,94723.06
2018-01-12T10:07:50.242Z,94722.34
2018-01-12T10:10:17.804Z,94724.41
2018-01-12T10:12:45.511Z,94715.55
2018-01-12T10:15:13.072Z,94714.30
2018-01-12T10:17:40.563Z,94713.89
2018-01-12T10:20:08.084Z,94713.44
2018-01-12T10:22:35.648Z,94709.61
2018-01-12T10:25:03.212Z,94712.54
2018-01-12T10:27:30.762Z,94714.20
2018-01-12T10:29:58.355Z,94713.81
2018-01-12T10:37:50.367Z,94707.22
2018-01-12T10:40:29.819Z,94714.92
2018-01-12T10:42:57.389Z,94721.78
2018-01-12T10:45:24.939Z,94723.86
2018-01-12T10:47:52.519Z,94719.27
2018-01-12T10:50:23.890Z,94716.72
2018-01-12T10:52:51.389Z,94720.13
2018-01-12T10:55:18.947Z,94717.99
2018-01-12T10:57:46.441Z,94717.13
2018-01-12T11:00:33.158Z,94714.13
2018-01-12T11:03:00.721Z,94705.98
2018-01-12T11:05:28.207Z,94714.13
2018-01-12T11:07:55.712Z,94704.33
2018-01-12T11:10:23.197Z,94710.64
2018-01-12T11:12:50.803Z,94706.36
2018-01-12T11:15:18.354Z,94703.80
2018-01-12T11:17:45.845Z,94705.45
2018-01-12T11:20:13.399Z,94705.05
2018-01-12T11:22:40.949Z,94707.22
2018-01-12T11:25:08.512Z,94711.57
2018-01-12T11:27:36.049Z,94706.50
2018-01-12T11:30:03.645Z,94713.89
2018-01-12T11:32:31.121Z,94707.65
2018-01-12T11:34:58.671Z,94705.09
2018-01-12T11:37:26.225Z,94715.23
2018-01-12T11:39:53.723Z,94713.55
2018-01-12T11:42:21.217Z,94714.34
2018-01-12T11:44:48.787Z,94714.34
2018-01-12T11:47:16.384Z,94712.27
2018-01-12T11:49:43.935Z,94713.03
2018-01-12T11:52:11.427Z,94710.44
2018-01-12T11:54:38.983Z,94716.82
2018-01-12T11:57:06.477Z,94717.69
2018-01-12T11:59:34.028Z,94719.30
2018-01-12T12:02:01.529Z,94725.23
2018-01-12T12:04:29.133Z,94724.41
2018-01-12T12:06:56.696Z,94718.13
2018-01-12T12:09:24.247Z,94719.00
2018-01-12T12:11:51.738Z,94726.24
2018-01-12T12:14:19.323Z,94726.66
2018-01-12T12:16:46.885Z,94723.23
2018-01-12T12:19:14.453Z,94719.41
2018-01-12T12:21:41.941Z,94721.97
2018-01-12T12:24:09.436Z,94724.52
2018-01-12T12:26:36.922Z,94723.66
2018-01-12T12:29:04.483Z,94732.07
2018-01-12T12:31:32.042Z,94718.58
2018-01-12T12:33:59.595Z,94724.83
2018-01-12T12:36:27.148Z,94722.34
2018-01-12T12:38:54.713Z,94721.48
2018-01-12T12:41:22.203Z,94717.27
2018-01-12T12:43:49.717Z,94717.79
2018-01-12T12:46:17.280Z,94722.07
2018-01-12T12:48:44.841Z,94722.48
2018-01-12T12:51:12.416Z,94720.72
2018-01-12T12:53:39.984Z,94725.03
2018-01-12T12:56:07.549Z,94727.11
2018-01-12T12:58:35.039Z,94730.14
2018-01-12T13:01:02.645Z,94730.94
2018-01-12T13:03:30.218Z,94734.28
2018-01-12T13:05:57.783Z,94729.20
2018-01-12T13:08:25.352Z,94727.21
2018-01-12T13:10:52.918Z,94730.07
2018-01-12T13:13:20.519Z,94737.66
2018-01-12T13:15:48.078Z,94735.14
2018-01-12T13:18:15.633Z,94732.59
2018-01-12T13:20:43.117Z,94737.32
2018-01-12T13:23:10.680Z,94744.19
2018-01-12T13:25:38.174Z,94741.22
2018-01-12T13:28:05.661Z,94745.91
2018-01-12T13:30:33.223Z,94744.19
2018-01-12T13:33:00.720Z,94751.36
2018-01-12T13:35:28.303Z,94751.36
2018-01-12T13:37:55.863Z,94753.91
2018-01-12T13:40:23.435Z,94754.33
2018-01-12T13:42:52.336Z,94745.91
2018-01-12T13:45:19.830Z,94756.81
2018-01-12T13:47:47.388Z,94758.50
2018-01-12T13:50:14.930Z,94762.36
2018-01-12T13:52:42.508Z,94766.16
2018-01-12T13:55:10.098Z,94770.78
2018-01-12T13:57:37.696Z,94773.03
2018-01-12T14:00:05.276Z,94773.89
2018-01-12T14:02:32.827Z,94770.99
2018-01-12T14:05:01.157Z,94768.44
2018-01-12T14:07:28.741Z,94770.17
2018-01-12T14:09:56.306Z,94772.72
2018-01-12T14:12:23.878Z,94775.69
2018-01-12T14:14:51.453Z,94777.38
2018-01-12T14:17:19.016Z,94782.00
2018-01-12T14:19:46.519Z,94781.97
2018-01-12T14:22:14.016Z,94780.69
2018-01-12T14:24:41.575Z,94779.83
2018-01-12T14:27:09.138Z,94784.48
2018-01-12T14:29:36.691Z,94786.97
2018-01-12T14:32:04.258Z,94779.06
2018-01-12T14:34:31.853Z,94787.94
2018-01-12T14:36:59.436Z,94793.77
2018-01-12T14:39:27.005Z,94800.25
2018-01-12T14:41:54.576Z,94799.88
2018-01-12T14:44:22.147Z,94804.22
2018-01-12T14:46:49.707Z,94811.88
2018-01-12T14:49:17.201Z,94814.02
2018-01-12T14:51:44.823Z,94811.84
2018-01-12T14:54:12.381Z,94818.68
2018-01-12T14:56:39.950Z,94824.61
2018-01-12T14:59:07.446Z,94821.99
2018-01-12T15:01:35.011Z,94831.30
2018-01-12T15:04:02.577Z,94833.03
2018-01-12T15:06:30.160Z,94837.73
2018-01-12T15:08:57.755Z,94840.69
2018-01-12T15:11:25.247Z,94841.55
2018-01-12T15:13:52.736Z,94845.77
2018-01-12T15:16:20.297Z,94855.15
2018-01-12T15:18:47.794Z,94853.42
2018-01-12T15:21:15.382Z,94855.15
2018-01-12T15:23:42.954Z,94852.98
2018-01-12T15:26:10.520Z,94850.80
2018-01-12T15:28:38.112Z,94853.36
2018-01-12T15:31:05.624Z,94858.47
2018-01-12T15:33:33.180Z,94857.73
2018-01-12T15:36:00.750Z,94860.77
2018-01-12T15:38:28.306Z,94865.50
2018-01-12T15:40:55.866Z,94861.67
2018-01-12T15:43:23.419Z,94863.77
2018-01-12T15:45:50.988Z,94859.95
2018-01-12T15:48:18.541Z,94864.61
2018-01-12T15:50:46.103Z,94874.75
2018-01-12T15:53:13.589Z,94876.86
2018-01-12T15:55:41.160Z,94871.33
2018-01-12T15:58:08.771Z,94870.89
2018-01-12T16:00:36.335Z,94882.27
2018-01-12T16:03:03.904Z,94878.99
2018-01-12T16:05:31.421Z,94880.65
2018-01-12T16:07:58.909Z,94892.08
2018-01-12T16:10:26.474Z,94884.48
2018-01-12T16:12:54.049Z,94884.14
2018-01-12T16:15:21.603Z,94888.80
2018-01-12T16:17:49.162Z,94897.29
2018-01-12T16:20:16.741Z,94896.02
2018-01-12T16:22:44.359Z,94895.22
2018-01-12T16:25:11.923Z,94900.33
2018-01-12T16:27:39.512Z,94902.44
2018-01-12T16:30:07.091Z,94903.16
2018-01-12T16:32:34.724Z,94906.98
2018-01-12T16:35:02.309Z,94912.16
2018-01-12T16:37:29.879Z,94915.58
2018-01-12T16:39:57.444Z,94910.05
2018-01-12T16:42:24.996Z,94916.00
2018-01-12T16:44:52.560Z,94921.90
2018-01-12T16:47:20.135Z,94916.79
2018-01-12T16:49:47.626Z,94923.91
2018-01-12T16:52:15.118Z,94915.48
2018-01-12T16:54:42.680Z,94916.72
2018-01-12T16:57:11.581Z,94925.18
2018-01-12T16:59:39.074Z,94921.41
2018-01-12T17:02:06.635Z,94925.56
2018-01-12T17:04:34.234Z,94927.59
2018-01-12T17:07:01.800Z,94925.84
2018-01-12T17:09:29.359Z,94931.30
2018-01-12T17:11:56.937Z,94930.84
2018-01-12T17:14:24.528Z,94929.12
2018-01-12T17:16:52.116Z,94930.33
2018-01-12T17:19:19.618Z,94933.13
2018-01-12T17:21:47.178Z,94925.67
2018-01-12T17:24:14.743Z,94926.47
2018-01-12T17:26:42.304Z,94931.02
2018-01-12T17:29:09.865Z,94927.64
2018-01-12T17:31:37.465Z,94933.16
2018-01-12T17:34:05.032Z,94926.27
2018-01-12T17:36:32.603Z,94934.31
2018-01-12T17:39:00.203Z,94928.75
2018-01-12T17:41:27.760Z,94930.16
2018-01-12T17:43:55.395Z,94929.78
2018-01-12T17:46:22.903Z,94927.30
2018-01-12T17:48:50.464Z,94927.20
2018-01-12T17:51:18.061Z,94929.96
2018-01-12T17:53:45.593Z,94935.83
2018-01-12T17:56:13.161Z,94934.34
2018-01-12T17:58:40.641Z,94935.38
2018-01-12T18:01:08.210Z,94935.35
2018-01-12T18:03:35.855Z,94937.59
2018-01-12T18:06:03.436Z,94935.62
2018-01-12T18:08:30.933Z,94940.45
2018-01-12T18:10:58.419Z,94938.87
2018-01-12T18:13:25.976Z,94943.21
2018-01-12T18:15:53.526Z,94943.21
2018-01-12T18:18:21.109Z,94943.21
2018-01-12T18:20:48.605Z,94947.95
2018-01-12T18:23:16.215Z,94946.35
2018-01-12T18:25:43.742Z,94949.73
2018-01-12T18:28:11.303Z,94953.33
2018-01-12T18:30:38.861Z,94955.09
2018-01-12T18:33:06.424Z,94953.52
2018-01-12T18:35:33.913Z,94957.52
2018-01-12T18:38:01.409Z,94957.11
2018-01-12T18:40:28.980Z,94954.66
2018-01-12T18:42:56.570Z,94960.97
2018-01-12T18:45:24.057Z,94957.55
2018-01-12T18:47:51.628Z,94968.56
2018-01-12T18:50:19.237Z,94969.33
2018-01-12T18:52:46.834Z,94963.36
2018-01-12T18:55:14.399Z,94967.09
2018-01-12T18:57:41.968Z,94974.41
2018-01-12T19:00:09.574Z,94967.70
2018-01-12T19:02:37.146Z,94969.47
2018-01-12T19:05:04.703Z,94976.52
2018-01-12T19:07:32.201Z,94982.34
2018-01-12T19:09:59.780Z,94980.75
2018-01-12T19:12:27.331Z,94981.62
2018-01-12T19:14:54.918Z,94980.83
2018-01-12T19:17:22.548Z,94983.24
2018-01-12T19:19:50.044Z,94986.63
2018-01-12T19:22:17.640Z,94987.88
2018-01-12T19:24:45.145Z,94984.73
2018-01-12T19:27:12.645Z,94991.84
2018-01-12T19:29:40.195Z,94994.99
2018-01-12T19:32:07.772Z,94996.75
2018-01-12T19:34:35.273Z,94998.09
2018-01-12T19:37:02.766Z,94993.78
2018-01-12T19:39:30.269Z,94991.19
2018-01-12T19:41:57.768Z,94999.45
2018-01-12T19:44:25.374Z,94993.54
2018-01-12T19:46:52.931Z,94990.16
2018-01-12T19:49:20.482Z,94996.16
2018-01-12T19:51:48.394Z,94988.77
2018-01-12T19:54:16.173Z,94986.25
2018-01-12T19:56:43.840Z,94993.19
2018-01-12T19:59:11.422Z,94993.74
2018-01-12T20:01:38.918Z,94984.90
2018-01-12T20:04:06.551Z,94986.91
2018-01-12T20:06:34.121Z,94989.84
2018-01-12T20:09:01.869Z,94986.04
2018-01-12T20:11:29.445Z,94991.64
2018-01-12T20:13:57.053Z,94996.23
2018-01-12T20:16:24.639Z,95001.34
2018-01-12T20:18:52.203Z,94998.41
2018-01-12T20:21:19.767Z,94998.99
2018-01-12T20:23:47.373Z,94992.42
2018-01-12T20:26:14.954Z,94998.73
2018-01-12T20:28:42.523Z,95004.46
2018-01-12T20:31:10.084Z,95005.84
2018-01-12T20:33:37.573Z,95003.42
2018-01-12T20:36:05.091Z,95009.39
2018-01-12T20:38:32.589Z,95007.66
2018-01-12T20:41:00.152Z,95010.66
2018-01-12T20:43:27.707Z,95020.41
2018-01-12T20:45:55.282Z,95026.28
2018-01-12T20:48:22.872Z,95021.27
2018-01-12T20:50:50.440Z,95031.48
2018-01-12T20:53:17.993Z,95019.70
2018-01-12T20:55:45.478Z,95024.84
2018-01-12T20:58:13.030Z,95023.36
2018-01-12T21:00:40.574Z,95026.39
2018-01-12T21:03:08.132Z,95027.45
2018-01-12T21:05:35.722Z,95023.75
2018-01-12T21:08:03.210Z,95019.61
2018-01-12T21:10:30.767Z,95022.61
2018-01-12T21:12:58.320Z,95029.41
2018-01-12T21:15:25.872Z,95031.96
2018-01-12T21:17:53.362Z,95026.02
2018-01-12T21:20:20.913Z,95023.89
2018-01-12T21:22:48.512Z,95025.20
2018-01-12T21:25:16.076Z,95031.03
2018-01-12T21:27:43.637Z,95023.37
2018-01-12T21:30:11.188Z,95025.98
2018-01-12T21:32:38.703Z,95028.16
2018-01-12T21:35:06.250Z,95023.60
2018-01-12T21:37:33.790Z,95016.08
2018-01-12T21:40:01.331Z,95019.55
2018-01-12T21:42:28.888Z,95023.00
2018-01-12T21:44:56.477Z,95012.38
2018-01-12T21:47:24.068Z,95009.78
2018-01-12T21:49:51.625Z,95005.55
2018-01-12T21:52:19.180Z,95003.41
2018-01-12T21:54:46.732Z,95005.09
2018-01-12T21:57:14.213Z,95008.00
2018-01-12T21:59:41.760Z,95010.55
2018-01-12T22:02:09.314Z,95012.62
2018-01-12T22:04:36.864Z,95011.76
2018-01-12T22:07:04.416Z,95014.66
2018-01-12T22:09:31.902Z,95010.20
2018-01-12T22:11:59.479Z,95016.94
2018-01-12T22:14:27.037Z,95026.00
2018-01-12T22:16:54.592Z,95031.63
2018-01-12T22:19:22.075Z,95028.27
2018-01-12T22:21:49.626Z,95035.20
2018-01-12T22:24:17.106Z,95037.82
2018-01-12T22:26:44.654Z,95039.96
2018-01-12T22:29:12.129Z,95040.41
2018-01-12T22:31:39.726Z,95036.55
2018-01-12T22:34:07.302Z,95033.16
2018-01-12T22:36:34.777Z,95039.09
2018-01-12T22:39:02.327Z,95041.14
2018-01-12T22:41:29.877Z,95036.55
2018-01-12T22:43:57.428Z,95033.89
2018-01-12T22:46:24.977Z,95027.89
2018-01-12T22:48:52.526Z,95029.52
2018-01-12T22:51:20.029Z,95037.18
2018-01-12T22:53:47.581Z,95028.69
2018-01-12T22:56:15.131Z,95033.06
2018-01-12T22:58:42.605Z,95038.27
2018-01-12T23:01:10.159Z,95041.72
2018-01-12T23:03:37.715Z,95040.86
2018-01-12T23:06:05.295Z,95043.86
2018-01-12T23:08:32.879Z,95039.16
2018-01-12T23:11:00.445Z,95046.41
2018-01-12T23:13:27.920Z,95038.72
2018-01-12T23:15:55.471Z,95038.23
2018-01-12T23:18:23.014Z,95033.92
2018-01-12T23:20:50.568Z,95022.84
2018-01-12T23:23:18.120Z,95018.13
2018-01-12T23:25:45.659Z,95021.41
2018-01-12T23:28:13.203Z,95014.96
2018-01-12T23:30:40.757Z,95016.23
2018-01-12T23:33:08.244Z,95017.06
2018-01-12T23:35:35.795Z,95019.55
2018-01-12T23:38:03.284Z,95020.03
2018-01-12T23:40:30.872Z,95019.20
2018-01-12T23:42:58.421Z,95019.34
2018-01-12T23:45:25.901Z,95020.27
2018-01-12T23:47:53.452Z,95017.84
2018-01-12T23:50:21.004Z,95014.97
2018-01-12T23:52:48.563Z,95014.59
2018-01-12T23:55:16.111Z,95017.20
2018-01-12T23:57:43.673Z,95019.25
